GCGM/GMZ METAR and TAF weather

Enter ICAO airport designator
Station Type Date Time Source
GCGM METAR 2019/06/18 14:30 UTC NOAA

GCGM 181430Z 21006KT 170V260 9999 FEW010 24/19 Q1019 RMK R09/19004KT 120V250 ARP/18004KT 140V230


Station Type Date Time Source
GCGM Decoded METAR 2019/06/18 14:30 UTC NOAA

Station name not available
Jun 18, 2019 - 10:30 AM EDT / 2019.06.18 1430 UTC
Wind: from the SSW (210 degrees) at 7 MPH (6 KT) (direction variable):0
Visibility: greater than 7 mile(s):0
Sky conditions: mostly clear
Temperature: 75 F (24 C)
Dew Point: 66 F (19 C)
Relative Humidity: 73%
Pressure (altimeter): 30.09 in. Hg (1019 hPa)
ob: GCGM 181430Z 21006KT 170V260 9999 FEW010 24/19 Q1019 RMK R09/19004KT 120V250 ARP/18004KT 140V230
cycle: 14

Station Type Date Time Source
GCGM TAF 2019/06/18 15:00 UTC NOAA

TAF GCGM 181400Z 1815/1915 15005KT 9999 SCT025 TX25/1914Z TN19/1906Z

Example: see airport list